sensor_id;sensor_type;location;lat;lon;timestamp;P1;durP1;ratioP1;P2;durP2;ratioP2
51602;SDS011;37954;51.980;5.850;2023-07-13T00:01:39;3.05;;;1.67;;
51602;SDS011;37954;51.980;5.850;2023-07-13T00:05:57;8.57;;;2.47;;
51602;SDS011;37954;51.980;5.850;2023-07-13T00:10:10;3.08;;;2.10;;
51602;SDS011;37954;51.980;5.850;2023-07-13T00:14:23;7.07;;;2.17;;
51602;SDS011;37954;51.980;5.850;2023-07-13T00:18:36;8.10;;;2.50;;
51602;SDS011;37954;51.980;5.850;2023-07-13T00:22:49;3.50;;;2.00;;
51602;SDS011;37954;51.980;5.850;2023-07-13T00:27:01;2.78;;;1.85;;
51602;SDS011;37954;51.980;5.850;2023-07-13T00:31:13;3.70;;;1.67;;
51602;SDS011;37954;51.980;5.850;2023-07-13T00:35:30;7.93;;;2.13;;
51602;SDS011;37954;51.980;5.850;2023-07-13T00:39:42;3.97;;;1.98;;
51602;SDS011;37954;51.980;5.850;2023-07-13T00:43:53;3.40;;;2.10;;
51602;SDS011;37954;51.980;5.850;2023-07-13T00:48:05;3.83;;;1.80;;
51602;SDS011;37954;51.980;5.850;2023-07-13T00:52:17;7.78;;;2.17;;
51602;SDS011;37954;51.980;5.850;2023-07-13T00:56:29;3.45;;;1.70;;
51602;SDS011;37954;51.980;5.850;2023-07-13T01:00:44;3.65;;;1.80;;
51602;SDS011;37954;51.980;5.850;2023-07-13T01:04:58;3.47;;;1.77;;
51602;SDS011;37954;51.980;5.850;2023-07-13T01:09:12;3.10;;;1.75;;
51602;SDS011;37954;51.980;5.850;2023-07-13T01:13:24;2.78;;;1.50;;
51602;SDS011;37954;51.980;5.850;2023-07-13T01:17:37;4.60;;;1.88;;
51602;SDS011;37954;51.980;5.850;2023-07-13T01:21:51;8.45;;;2.35;;
51602;SDS011;37954;51.980;5.850;2023-07-13T01:26:04;5.32;;;1.67;;
51602;SDS011;37954;51.980;5.850;2023-07-13T01:30:15;4.30;;;2.03;;
51602;SDS011;37954;51.980;5.850;2023-07-13T01:34:27;4.32;;;1.90;;
51602;SDS011;37954;51.980;5.850;2023-07-13T01:38:39;7.97;;;2.33;;
51602;SDS011;37954;51.980;5.850;2023-07-13T01:42:54;5.05;;;1.67;;
51602;SDS011;37954;51.980;5.850;2023-07-13T01:47:07;3.20;;;2.10;;
51602;SDS011;37954;51.980;5.850;2023-07-13T01:51:19;2.85;;;1.73;;
51602;SDS011;37954;51.980;5.850;2023-07-13T01:55:32;3.50;;;1.88;;
51602;SDS011;37954;51.980;5.850;2023-07-13T01:59:46;8.23;;;2.38;;
51602;SDS011;37954;51.980;5.850;2023-07-13T02:03:58;4.28;;;2.30;;
51602;SDS011;37954;51.980;5.850;2023-07-13T02:08:12;4.00;;;2.00;;
51602;SDS011;37954;51.980;5.850;2023-07-13T02:12:24;5.40;;;2.00;;
51602;SDS011;37954;51.980;5.850;2023-07-13T02:16:36;3.20;;;1.80;;
51602;SDS011;37954;51.980;5.850;2023-07-13T02:20:48;4.82;;;2.38;;
51602;SDS011;37954;51.980;5.850;2023-07-13T02:25:00;4.43;;;2.00;;
51602;SDS011;37954;51.980;5.850;2023-07-13T02:29:11;4.80;;;2.15;;
51602;SDS011;37954;51.980;5.850;2023-07-13T02:33:23;3.40;;;2.08;;
51602;SDS011;37954;51.980;5.850;2023-07-13T02:37:35;5.25;;;2.15;;
51602;SDS011;37954;51.980;5.850;2023-07-13T02:41:47;6.35;;;2.40;;
51602;SDS011;37954;51.980;5.850;2023-07-13T02:45:59;6.75;;;2.95;;
51602;SDS011;37954;51.980;5.850;2023-07-13T02:50:19;4.38;;;2.40;;
51602;SDS011;37954;51.980;5.850;2023-07-13T02:54:31;6.25;;;2.72;;
51602;SDS011;37954;51.980;5.850;2023-07-13T02:58:43;7.03;;;2.72;;
51602;SDS011;37954;51.980;5.850;2023-07-13T03:02:55;4.38;;;2.60;;
51602;SDS011;37954;51.980;5.850;2023-07-13T03:07:10;5.60;;;3.03;;
51602;SDS011;37954;51.980;5.850;2023-07-13T03:11:21;4.85;;;2.58;;
51602;SDS011;37954;51.980;5.850;2023-07-13T03:15:50;7.30;;;2.65;;
51602;SDS011;37954;51.980;5.850;2023-07-13T03:20:03;5.63;;;2.80;;
51602;SDS011;37954;51.980;5.850;2023-07-13T03:24:15;7.60;;;2.80;;
51602;SDS011;37954;51.980;5.850;2023-07-13T03:28:28;5.32;;;2.83;;
51602;SDS011;37954;51.980;5.850;2023-07-13T03:32:39;12.88;;;3.33;;
51602;SDS011;37954;51.980;5.850;2023-07-13T03:36:55;4.63;;;3.10;;
51602;SDS011;37954;51.980;5.850;2023-07-13T03:41:08;6.10;;;2.70;;
51602;SDS011;37954;51.980;5.850;2023-07-13T03:45:20;6.55;;;2.78;;
51602;SDS011;37954;51.980;5.850;2023-07-13T03:49:32;5.05;;;2.95;;
51602;SDS011;37954;51.980;5.850;2023-07-13T03:53:45;5.35;;;2.90;;
51602;SDS011;37954;51.980;5.850;2023-07-13T04:02:55;6.95;;;3.10;;
51602;SDS011;37954;51.980;5.850;2023-07-13T04:07:07;6.28;;;3.05;;
51602;SDS011;37954;51.980;5.850;2023-07-13T04:11:23;14.02;;;3.28;;
51602;SDS011;37954;51.980;5.850;2023-07-13T04:15:38;10.48;;;3.53;;
51602;SDS011;37954;51.980;5.850;2023-07-13T04:19:50;8.40;;;3.40;;
51602;SDS011;37954;51.980;5.850;2023-07-13T04:24:02;7.72;;;3.20;;
51602;SDS011;37954;51.980;5.850;2023-07-13T04:28:15;9.02;;;3.53;;
51602;SDS011;37954;51.980;5.850;2023-07-13T04:32:29;7.35;;;3.10;;
51602;SDS011;37954;51.980;5.850;2023-07-13T04:36:41;7.22;;;3.22;;
51602;SDS011;37954;51.980;5.850;2023-07-13T04:40:54;5.30;;;3.20;;
51602;SDS011;37954;51.980;5.850;2023-07-13T04:45:08;4.53;;;3.33;;
51602;SDS011;37954;51.980;5.850;2023-07-13T04:49:20;6.28;;;3.25;;
51602;SDS011;37954;51.980;5.850;2023-07-13T04:53:32;7.72;;;3.63;;
51602;SDS011;37954;51.980;5.850;2023-07-13T04:57:46;15.35;;;4.15;;
51602;SDS011;37954;51.980;5.850;2023-07-13T05:01:58;13.77;;;4.05;;
51602;SDS011;37954;51.980;5.850;2023-07-13T05:06:10;10.55;;;3.60;;
51602;SDS011;37954;51.980;5.850;2023-07-13T05:10:22;9.10;;;3.65;;
51602;SDS011;37954;51.980;5.850;2023-07-13T05:14:34;12.52;;;3.80;;
51602;SDS011;37954;51.980;5.850;2023-07-13T05:18:46;8.23;;;3.72;;
51602;SDS011;37954;51.980;5.850;2023-07-13T05:22:58;8.15;;;3.75;;
51602;SDS011;37954;51.980;5.850;2023-07-13T05:27:10;8.55;;;3.95;;
51602;SDS011;37954;51.980;5.850;2023-07-13T05:31:22;6.45;;;3.95;;
51602;SDS011;37954;51.980;5.850;2023-07-13T05:35:34;7.00;;;3.97;;
51602;SDS011;37954;51.980;5.850;2023-07-13T05:39:46;10.13;;;4.43;;
51602;SDS011;37954;51.980;5.850;2023-07-13T05:43:57;11.85;;;4.45;;
51602;SDS011;37954;51.980;5.850;2023-07-13T05:48:09;8.43;;;4.38;;
51602;SDS011;37954;51.980;5.850;2023-07-13T05:52:21;11.30;;;4.63;;
51602;SDS011;37954;51.980;5.850;2023-07-13T05:56:33;8.80;;;4.18;;
51602;SDS011;37954;51.980;5.850;2023-07-13T06:00:45;11.80;;;5.10;;
51602;SDS011;37954;51.980;5.850;2023-07-13T06:04:57;11.50;;;5.05;;
51602;SDS011;37954;51.980;5.850;2023-07-13T06:09:09;11.73;;;4.78;;
51602;SDS011;37954;51.980;5.850;2023-07-13T06:13:21;14.48;;;6.80;;
51602;SDS011;37954;51.980;5.850;2023-07-13T06:17:33;14.70;;;6.32;;
51602;SDS011;37954;51.980;5.850;2023-07-13T06:21:44;20.40;;;8.18;;
51602;SDS011;37954;51.980;5.850;2023-07-13T06:25:56;13.57;;;7.05;;
51602;SDS011;37954;51.980;5.850;2023-07-13T06:30:08;14.95;;;7.60;;
51602;SDS011;37954;51.980;5.850;2023-07-13T06:34:21;13.05;;;6.95;;
51602;SDS011;37954;51.980;5.850;2023-07-13T06:38:33;11.25;;;6.85;;
51602;SDS011;37954;51.980;5.850;2023-07-13T06:42:45;11.98;;;6.78;;
51602;SDS011;37954;51.980;5.850;2023-07-13T06:46:57;14.43;;;7.10;;
51602;SDS011;37954;51.980;5.850;2023-07-13T06:51:09;15.43;;;7.75;;
51602;SDS011;37954;51.980;5.850;2023-07-13T06:55:21;13.20;;;7.60;;
51602;SDS011;37954;51.980;5.850;2023-07-13T06:59:33;12.90;;;6.30;;
51602;SDS011;37954;51.980;5.850;2023-07-13T07:03:44;15.30;;;7.75;;
51602;SDS011;37954;51.980;5.850;2023-07-13T07:07:57;12.27;;;7.22;;
51602;SDS011;37954;51.980;5.850;2023-07-13T07:12:08;9.25;;;7.07;;
51602;SDS011;37954;51.980;5.850;2023-07-13T07:16:23;16.85;;;7.43;;
51602;SDS011;37954;51.980;5.850;2023-07-13T07:20:36;12.02;;;7.45;;
51602;SDS011;37954;51.980;5.850;2023-07-13T07:24:48;11.85;;;7.55;;
51602;SDS011;37954;51.980;5.850;2023-07-13T07:29:00;15.82;;;7.97;;
51602;SDS011;37954;51.980;5.850;2023-07-13T07:33:14;10.98;;;7.10;;
51602;SDS011;37954;51.980;5.850;2023-07-13T07:37:27;16.42;;;7.45;;
51602;SDS011;37954;51.980;5.850;2023-07-13T07:41:42;13.18;;;7.35;;
51602;SDS011;37954;51.980;5.850;2023-07-13T07:46:07;16.25;;;7.63;;
51602;SDS011;37954;51.980;5.850;2023-07-13T07:50:19;12.07;;;6.40;;
51602;SDS011;37954;51.980;5.850;2023-07-13T07:54:31;11.60;;;6.95;;
51602;SDS011;37954;51.980;5.850;2023-07-13T07:59:03;14.00;;;6.72;;
51602;SDS011;37954;51.980;5.850;2023-07-13T08:03:18;9.55;;;7.05;;
51602;SDS011;37954;51.980;5.850;2023-07-13T08:07:33;12.98;;;6.28;;
51602;SDS011;37954;51.980;5.850;2023-07-13T08:11:45;13.90;;;6.30;;
51602;SDS011;37954;51.980;5.850;2023-07-13T08:16:00;11.70;;;6.40;;
51602;SDS011;37954;51.980;5.850;2023-07-13T08:20:12;9.23;;;5.70;;
51602;SDS011;37954;51.980;5.850;2023-07-13T08:24:25;9.65;;;5.50;;
51602;SDS011;37954;51.980;5.850;2023-07-13T08:28:37;7.05;;;5.68;;
51602;SDS011;37954;51.980;5.850;2023-07-13T08:32:49;10.25;;;6.18;;
51602;SDS011;37954;51.980;5.850;2023-07-13T08:37:01;7.10;;;5.82;;
51602;SDS011;37954;51.980;5.850;2023-07-13T08:41:17;12.75;;;5.95;;
51602;SDS011;37954;51.980;5.850;2023-07-13T08:45:32;7.63;;;5.40;;
51602;SDS011;37954;51.980;5.850;2023-07-13T08:49:51;8.88;;;5.35;;
51602;SDS011;37954;51.980;5.850;2023-07-13T08:54:04;7.18;;;5.05;;
51602;SDS011;37954;51.980;5.850;2023-07-13T08:58:32;7.32;;;5.13;;
51602;SDS011;37954;51.980;5.850;2023-07-13T09:02:55;7.20;;;4.68;;
51602;SDS011;37954;51.980;5.850;2023-07-13T09:15:45;5.85;;;4.85;;
51602;SDS011;37954;51.980;5.850;2023-07-13T09:20:00;6.55;;;3.88;;
51602;SDS011;37954;51.980;5.850;2023-07-13T09:29:09;5.60;;;3.55;;
51602;SDS011;37954;51.980;5.850;2023-07-13T09:33:25;6.35;;;3.95;;
51602;SDS011;37954;51.980;5.850;2023-07-13T09:37:40;7.25;;;3.20;;
51602;SDS011;37954;51.980;5.850;2023-07-13T09:42:07;3.75;;;2.47;;
51602;SDS011;37954;51.980;5.850;2023-07-13T09:46:27;8.70;;;2.55;;
51602;SDS011;37954;51.980;5.850;2023-07-13T09:50:39;6.28;;;3.20;;
51602;SDS011;37954;51.980;5.850;2023-07-13T09:54:53;9.40;;;3.55;;
51602;SDS011;37954;51.980;5.850;2023-07-13T09:59:20;4.70;;;3.17;;
51602;SDS011;37954;51.980;5.850;2023-07-13T10:03:35;6.63;;;3.05;;
51602;SDS011;37954;51.980;5.850;2023-07-13T10:07:49;4.15;;;3.00;;
51602;SDS011;37954;51.980;5.850;2023-07-13T10:12:01;4.57;;;2.90;;
51602;SDS011;37954;51.980;5.850;2023-07-13T10:16:13;4.10;;;2.95;;
51602;SDS011;37954;51.980;5.850;2023-07-13T10:20:28;6.55;;;2.83;;
51602;SDS011;37954;51.980;5.850;2023-07-13T10:24:40;9.25;;;2.88;;
51602;SDS011;37954;51.980;5.850;2023-07-13T10:28:54;6.72;;;2.97;;
51602;SDS011;37954;51.980;5.850;2023-07-13T10:33:10;4.82;;;3.22;;
51602;SDS011;37954;51.980;5.850;2023-07-13T10:37:27;2.97;;;2.40;;
51602;SDS011;37954;51.980;5.850;2023-07-13T10:41:42;4.53;;;2.63;;
51602;SDS011;37954;51.980;5.850;2023-07-13T10:45:57;4.82;;;3.38;;
51602;SDS011;37954;51.980;5.850;2023-07-13T10:50:16;6.68;;;3.67;;
51602;SDS011;37954;51.980;5.850;2023-07-13T10:54:32;7.40;;;3.22;;
51602;SDS011;37954;51.980;5.850;2023-07-13T10:58:46;3.97;;;2.70;;
51602;SDS011;37954;51.980;5.850;2023-07-13T11:02:58;6.15;;;3.10;;
51602;SDS011;37954;51.980;5.850;2023-07-13T11:07:24;3.65;;;2.70;;
51602;SDS011;37954;51.980;5.850;2023-07-13T11:11:41;4.82;;;2.78;;
51602;SDS011;37954;51.980;5.850;2023-07-13T11:15:53;3.03;;;2.17;;
51602;SDS011;37954;51.980;5.850;2023-07-13T11:37:47;3.88;;;1.70;;
51602;SDS011;37954;51.980;5.850;2023-07-13T11:42:00;2.88;;;1.98;;
51602;SDS011;37954;51.980;5.850;2023-07-13T11:46:22;3.60;;;1.80;;
51602;SDS011;37954;51.980;5.850;2023-07-13T11:50:38;2.25;;;1.88;;
51602;SDS011;37954;51.980;5.850;2023-07-13T11:55:00;4.03;;;2.10;;
51602;SDS011;37954;51.980;5.850;2023-07-13T11:59:14;2.20;;;1.80;;
51602;SDS011;37954;51.980;5.850;2023-07-13T12:03:25;2.60;;;1.85;;
51602;SDS011;37954;51.980;5.850;2023-07-13T12:07:38;3.05;;;1.90;;
51602;SDS011;37954;51.980;5.850;2023-07-13T12:11:50;6.00;;;2.40;;
51602;SDS011;37954;51.980;5.850;2023-07-13T12:16:07;5.82;;;2.45;;
51602;SDS011;37954;51.980;5.850;2023-07-13T12:20:40;4.25;;;2.22;;
51602;SDS011;37954;51.980;5.850;2023-07-13T12:24:52;1.80;;;1.70;;
51602;SDS011;37954;51.980;5.850;2023-07-13T12:29:06;4.28;;;2.10;;
51602;SDS011;37954;51.980;5.850;2023-07-13T12:33:18;1.95;;;1.65;;
51602;SDS011;37954;51.980;5.850;2023-07-13T12:37:33;3.25;;;2.08;;
51602;SDS011;37954;51.980;5.850;2023-07-13T12:41:47;4.57;;;2.20;;
51602;SDS011;37954;51.980;5.850;2023-07-13T12:46:02;3.15;;;1.83;;
51602;SDS011;37954;51.980;5.850;2023-07-13T12:50:17;3.70;;;1.80;;
51602;SDS011;37954;51.980;5.850;2023-07-13T12:54:31;2.63;;;1.83;;
51602;SDS011;37954;51.980;5.850;2023-07-13T12:58:43;6.05;;;1.80;;
51602;SDS011;37954;51.980;5.850;2023-07-13T13:02:57;2.72;;;1.88;;
51602;SDS011;37954;51.980;5.850;2023-07-13T13:07:12;2.90;;;2.00;;
51602;SDS011;37954;51.980;5.850;2023-07-13T13:11:25;2.10;;;1.90;;
51602;SDS011;37954;51.980;5.850;2023-07-13T13:15:37;2.65;;;1.95;;
51602;SDS011;37954;51.980;5.850;2023-07-13T13:19:49;2.72;;;1.92;;
51602;SDS011;37954;51.980;5.850;2023-07-13T13:24:10;1.65;;;1.50;;
51602;SDS011;37954;51.980;5.850;2023-07-13T13:28:23;4.72;;;2.20;;
51602;SDS011;37954;51.980;5.850;2023-07-13T13:32:34;2.17;;;1.60;;
51602;SDS011;37954;51.980;5.850;2023-07-13T13:36:47;3.58;;;1.60;;
51602;SDS011;37954;51.980;5.850;2023-07-13T13:41:03;1.95;;;1.65;;
51602;SDS011;37954;51.980;5.850;2023-07-13T13:45:15;3.03;;;1.70;;
51602;SDS011;37954;51.980;5.850;2023-07-13T13:49:31;3.60;;;1.60;;
51602;SDS011;37954;51.980;5.850;2023-07-13T13:53:43;2.47;;;1.80;;
51602;SDS011;37954;51.980;5.850;2023-07-13T13:57:56;1.77;;;1.48;;
51602;SDS011;37954;51.980;5.850;2023-07-13T14:02:25;2.42;;;1.70;;
51602;SDS011;37954;51.980;5.850;2023-07-13T14:06:39;2.50;;;1.88;;
51602;SDS011;37954;51.980;5.850;2023-07-13T14:10:52;2.17;;;1.85;;
51602;SDS011;37954;51.980;5.850;2023-07-13T14:15:13;2.35;;;1.73;;
51602;SDS011;37954;51.980;5.850;2023-07-13T14:19:30;3.35;;;1.88;;
51602;SDS011;37954;51.980;5.850;2023-07-13T14:23:42;3.05;;;1.70;;
51602;SDS011;37954;51.980;5.850;2023-07-13T14:27:56;4.32;;;1.92;;
51602;SDS011;37954;51.980;5.850;2023-07-13T14:32:19;1.73;;;1.60;;
51602;SDS011;37954;51.980;5.850;2023-07-13T14:36:32;2.63;;;1.98;;
51602;SDS011;37954;51.980;5.850;2023-07-13T14:40:45;2.28;;;1.95;;
51602;SDS011;37954;51.980;5.850;2023-07-13T14:44:58;3.83;;;1.83;;
51602;SDS011;37954;51.980;5.850;2023-07-13T14:53:35;1.83;;;1.73;;
51602;SDS011;37954;51.980;5.850;2023-07-13T14:57:50;2.20;;;1.80;;
51602;SDS011;37954;51.980;5.850;2023-07-13T15:02:02;1.88;;;1.70;;
51602;SDS011;37954;51.980;5.850;2023-07-13T15:06:14;1.88;;;1.70;;
51602;SDS011;37954;51.980;5.850;2023-07-13T15:10:30;4.32;;;2.15;;
51602;SDS011;37954;51.980;5.850;2023-07-13T15:14:44;2.65;;;1.88;;
51602;SDS011;37954;51.980;5.850;2023-07-13T15:18:56;2.00;;;1.80;;
51602;SDS011;37954;51.980;5.850;2023-07-13T15:23:08;3.35;;;1.77;;
51602;SDS011;37954;51.980;5.850;2023-07-13T15:27:21;2.67;;;1.70;;
51602;SDS011;37954;51.980;5.850;2023-07-13T15:31:33;2.20;;;1.65;;
51602;SDS011;37954;51.980;5.850;2023-07-13T15:35:48;2.30;;;2.00;;
51602;SDS011;37954;51.980;5.850;2023-07-13T15:40:02;2.65;;;1.63;;
51602;SDS011;37954;51.980;5.850;2023-07-13T15:44:22;3.10;;;1.80;;
51602;SDS011;37954;51.980;5.850;2023-07-13T15:48:37;2.78;;;1.85;;
51602;SDS011;37954;51.980;5.850;2023-07-13T15:52:50;2.90;;;1.83;;
51602;SDS011;37954;51.980;5.850;2023-07-13T15:57:08;2.25;;;1.70;;
51602;SDS011;37954;51.980;5.850;2023-07-13T16:01:21;1.85;;;1.50;;
51602;SDS011;37954;51.980;5.850;2023-07-13T16:05:34;5.00;;;1.83;;
51602;SDS011;37954;51.980;5.850;2023-07-13T16:09:47;1.83;;;1.60;;
51602;SDS011;37954;51.980;5.850;2023-07-13T16:14:00;2.25;;;1.80;;
51602;SDS011;37954;51.980;5.850;2023-07-13T16:18:12;2.90;;;1.83;;
51602;SDS011;37954;51.980;5.850;2023-07-13T16:22:24;2.03;;;1.75;;
51602;SDS011;37954;51.980;5.850;2023-07-13T16:26:37;2.92;;;1.73;;
51602;SDS011;37954;51.980;5.850;2023-07-13T16:30:54;2.47;;;1.70;;
51602;SDS011;37954;51.980;5.850;2023-07-13T16:35:07;2.15;;;1.85;;
51602;SDS011;37954;51.980;5.850;2023-07-13T16:39:20;3.00;;;2.00;;
51602;SDS011;37954;51.980;5.850;2023-07-13T16:43:34;2.67;;;2.10;;
51602;SDS011;37954;51.980;5.850;2023-07-13T16:47:47;2.60;;;2.00;;
51602;SDS011;37954;51.980;5.850;2023-07-13T16:52:02;3.38;;;2.15;;
51602;SDS011;37954;51.980;5.850;2023-07-13T16:56:15;1.77;;;1.67;;
51602;SDS011;37954;51.980;5.850;2023-07-13T17:00:31;2.95;;;1.95;;
51602;SDS011;37954;51.980;5.850;2023-07-13T17:04:44;6.05;;;2.30;;
51602;SDS011;37954;51.980;5.850;2023-07-13T17:08:57;2.80;;;2.15;;
51602;SDS011;37954;51.980;5.850;2023-07-13T17:13:11;2.55;;;1.67;;
51602;SDS011;37954;51.980;5.850;2023-07-13T17:17:26;2.67;;;1.85;;
51602;SDS011;37954;51.980;5.850;2023-07-13T17:21:46;2.15;;;1.63;;
51602;SDS011;37954;51.980;5.850;2023-07-13T17:25:59;3.53;;;1.63;;
51602;SDS011;37954;51.980;5.850;2023-07-13T17:30:18;4.10;;;1.88;;
51602;SDS011;37954;51.980;5.850;2023-07-13T17:34:32;1.80;;;1.70;;
51602;SDS011;37954;51.980;5.850;2023-07-13T17:38:45;2.92;;;1.85;;
51602;SDS011;37954;51.980;5.850;2023-07-13T17:43:02;1.88;;;1.65;;
51602;SDS011;37954;51.980;5.850;2023-07-13T17:47:26;1.65;;;1.55;;
51602;SDS011;37954;51.980;5.850;2023-07-13T17:51:38;2.10;;;1.60;;
51602;SDS011;37954;51.980;5.850;2023-07-13T17:55:51;2.05;;;1.70;;
51602;SDS011;37954;51.980;5.850;2023-07-13T18:00:05;2.60;;;1.63;;
51602;SDS011;37954;51.980;5.850;2023-07-13T18:04:38;1.83;;;1.50;;
51602;SDS011;37954;51.980;5.850;2023-07-13T18:08:51;1.55;;;1.25;;
51602;SDS011;37954;51.980;5.850;2023-07-13T18:13:05;1.60;;;1.50;;
51602;SDS011;37954;51.980;5.850;2023-07-13T18:17:17;2.30;;;1.48;;
51602;SDS011;37954;51.980;5.850;2023-07-13T18:21:31;3.55;;;1.70;;
51602;SDS011;37954;51.980;5.850;2023-07-13T18:25:44;4.97;;;1.35;;
51602;SDS011;37954;51.980;5.850;2023-07-13T18:29:59;3.42;;;1.55;;
51602;SDS011;37954;51.980;5.850;2023-07-13T18:34:11;1.92;;;1.58;;
51602;SDS011;37954;51.980;5.850;2023-07-13T18:38:25;2.20;;;1.40;;
51602;SDS011;37954;51.980;5.850;2023-07-13T18:42:41;2.53;;;1.52;;
51602;SDS011;37954;51.980;5.850;2023-07-13T18:46:57;3.83;;;1.67;;
51602;SDS011;37954;51.980;5.850;2023-07-13T18:51:09;2.90;;;1.83;;
51602;SDS011;37954;51.980;5.850;2023-07-13T18:55:23;1.70;;;1.50;;
51602;SDS011;37954;51.980;5.850;2023-07-13T18:59:36;2.50;;;1.58;;
51602;SDS011;37954;51.980;5.850;2023-07-13T19:03:48;3.00;;;1.85;;
51602;SDS011;37954;51.980;5.850;2023-07-13T19:08:04;4.05;;;1.83;;
51602;SDS011;37954;51.980;5.850;2023-07-13T19:12:22;4.13;;;1.90;;
51602;SDS011;37954;51.980;5.850;2023-07-13T19:16:37;3.10;;;1.70;;
51602;SDS011;37954;51.980;5.850;2023-07-13T19:20:54;2.33;;;1.83;;
51602;SDS011;37954;51.980;5.850;2023-07-13T19:25:13;2.45;;;1.65;;
51602;SDS011;37954;51.980;5.850;2023-07-13T19:29:27;2.10;;;1.60;;
51602;SDS011;37954;51.980;5.850;2023-07-13T19:33:40;7.43;;;1.70;;
51602;SDS011;37954;51.980;5.850;2023-07-13T19:37:52;1.35;;;1.20;;
51602;SDS011;37954;51.980;5.850;2023-07-13T19:42:25;2.17;;;1.52;;
51602;SDS011;37954;51.980;5.850;2023-07-13T19:46:37;3.50;;;1.80;;
51602;SDS011;37954;51.980;5.850;2023-07-13T19:50:49;2.47;;;1.75;;
51602;SDS011;37954;51.980;5.850;2023-07-13T19:55:04;1.92;;;1.73;;
51602;SDS011;37954;51.980;5.850;2023-07-13T19:59:23;2.53;;;1.88;;
51602;SDS011;37954;51.980;5.850;2023-07-13T20:03:38;3.55;;;1.60;;
51602;SDS011;37954;51.980;5.850;2023-07-13T20:07:54;2.58;;;1.73;;
51602;SDS011;37954;51.980;5.850;2023-07-13T20:12:11;2.30;;;1.85;;
51602;SDS011;37954;51.980;5.850;2023-07-13T20:16:25;2.30;;;1.50;;
51602;SDS011;37954;51.980;5.850;2023-07-13T20:20:40;2.80;;;1.85;;
51602;SDS011;37954;51.980;5.850;2023-07-13T20:24:57;2.88;;;1.65;;
51602;SDS011;37954;51.980;5.850;2023-07-13T20:29:09;3.35;;;1.90;;
51602;SDS011;37954;51.980;5.850;2023-07-13T20:33:22;2.42;;;1.83;;
51602;SDS011;37954;51.980;5.850;2023-07-13T20:37:37;3.35;;;1.85;;
51602;SDS011;37954;51.980;5.850;2023-07-13T20:41:49;3.03;;;2.00;;
51602;SDS011;37954;51.980;5.850;2023-07-13T20:46:04;2.72;;;2.10;;
51602;SDS011;37954;51.980;5.850;2023-07-13T20:50:25;1.77;;;1.67;;
51602;SDS011;37954;51.980;5.850;2023-07-13T20:54:39;3.03;;;2.00;;
51602;SDS011;37954;51.980;5.850;2023-07-13T20:58:55;4.15;;;2.08;;
51602;SDS011;37954;51.980;5.850;2023-07-13T21:03:26;3.70;;;2.22;;
51602;SDS011;37954;51.980;5.850;2023-07-13T21:07:39;4.70;;;2.28;;
51602;SDS011;37954;51.980;5.850;2023-07-13T21:11:50;4.82;;;2.45;;
51602;SDS011;37954;51.980;5.850;2023-07-13T21:16:13;2.50;;;1.95;;
51602;SDS011;37954;51.980;5.850;2023-07-13T21:20:29;3.05;;;2.25;;
51602;SDS011;37954;51.980;5.850;2023-07-13T21:24:43;2.22;;;1.88;;
51602;SDS011;37954;51.980;5.850;2023-07-13T21:28:55;2.53;;;2.10;;
51602;SDS011;37954;51.980;5.850;2023-07-13T21:33:08;6.53;;;2.33;;
51602;SDS011;37954;51.980;5.850;2023-07-13T21:37:30;4.20;;;2.33;;
51602;SDS011;37954;51.980;5.850;2023-07-13T21:41:42;3.38;;;2.28;;
51602;SDS011;37954;51.980;5.850;2023-07-13T21:45:56;2.60;;;2.22;;
51602;SDS011;37954;51.980;5.850;2023-07-13T21:50:08;4.18;;;2.10;;
51602;SDS011;37954;51.980;5.850;2023-07-13T21:54:20;3.90;;;2.50;;
51602;SDS011;37954;51.980;5.850;2023-07-13T21:58:33;4.13;;;3.00;;
51602;SDS011;37954;51.980;5.850;2023-07-13T22:02:45;5.35;;;2.80;;
51602;SDS011;37954;51.980;5.850;2023-07-13T22:06:58;6.93;;;3.30;;
51602;SDS011;37954;51.980;5.850;2023-07-13T22:11:12;4.20;;;2.78;;
51602;SDS011;37954;51.980;5.850;2023-07-13T22:15:26;7.95;;;3.33;;
51602;SDS011;37954;51.980;5.850;2023-07-13T22:19:40;3.38;;;2.60;;
51602;SDS011;37954;51.980;5.850;2023-07-13T22:23:52;3.13;;;2.78;;
51602;SDS011;37954;51.980;5.850;2023-07-13T22:28:04;3.13;;;2.83;;
51602;SDS011;37954;51.980;5.850;2023-07-13T22:32:20;4.03;;;3.00;;
51602;SDS011;37954;51.980;5.850;2023-07-13T22:36:32;3.97;;;3.03;;
51602;SDS011;37954;51.980;5.850;2023-07-13T22:40:44;3.67;;;2.47;;
51602;SDS011;37954;51.980;5.850;2023-07-13T22:44:56;2.60;;;2.28;;
51602;SDS011;37954;51.980;5.850;2023-07-13T22:49:19;4.97;;;3.28;;
51602;SDS011;37954;51.980;5.850;2023-07-13T22:53:33;5.93;;;3.10;;
51602;SDS011;37954;51.980;5.850;2023-07-13T22:57:46;4.20;;;2.78;;
51602;SDS011;37954;51.980;5.850;2023-07-13T23:02:00;3.35;;;2.53;;
51602;SDS011;37954;51.980;5.850;2023-07-13T23:06:16;5.03;;;2.65;;
51602;SDS011;37954;51.980;5.850;2023-07-13T23:10:30;4.50;;;2.95;;
51602;SDS011;37954;51.980;5.850;2023-07-13T23:14:42;4.47;;;3.13;;
51602;SDS011;37954;51.980;5.850;2023-07-13T23:18:54;5.05;;;3.08;;
51602;SDS011;37954;51.980;5.850;2023-07-13T23:23:08;4.38;;;3.38;;
51602;SDS011;37954;51.980;5.850;2023-07-13T23:27:22;4.45;;;3.88;;
51602;SDS011;37954;51.980;5.850;2023-07-13T23:31:34;6.30;;;3.92;;
51602;SDS011;37954;51.980;5.850;2023-07-13T23:35:48;9.73;;;4.20;;
51602;SDS011;37954;51.980;5.850;2023-07-13T23:40:04;6.20;;;4.45;;
51602;SDS011;37954;51.980;5.850;2023-07-13T23:44:25;4.75;;;3.67;;
51602;SDS011;37954;51.980;5.850;2023-07-13T23:48:37;4.90;;;4.00;;
51602;SDS011;37954;51.980;5.850;2023-07-13T23:52:49;5.20;;;4.25;;
51602;SDS011;37954;51.980;5.850;2023-07-13T23:57:02;5.20;;;3.83;;
